Comby, Texas
Current Conditions -  °F | °C
As of 2:52 PM on Tuesday 21 Oct 2014 (Local Time) from KHRL Reporting Station
Overcast Overcast  
Wind Chill: 77°   Ceiling: 1800
Heat Index: 79°   Visibility: 10mi
Dew Point: 71°   Wind: 0mph
Humidity: 82%   Direction: NA
Pressure: 29.91"   Gusts: NA
Location:  26.2542°N, 97.7326°W
Report Text: KHRL 211952Z 00000KT 10SM BKN018 BKN023 OVC090 25/22 A2991 RMK AO2 SLP127 P0002 T02500217
Loading
Personal Weather Stations






























Interactive Weather Map
Tropical Storm Tracking
New forecast layout! Learn more

10-Day Weather Forecast

Advertisements
Track Severe Weather on mobile